createdAt,value
2022-11-08T00:00:02.916Z,6.20
2022-11-08T00:02:34.118Z,6.20
2022-11-08T00:05:25.858Z,6.20
2022-11-08T00:08:17.212Z,6.10
2022-11-08T00:11:08.585Z,6.10
2022-11-08T00:13:56.331Z,6.20
2022-11-08T07:02:22.624Z,5.40
2022-11-08T07:05:03.240Z,5.40
2022-11-08T07:07:42.110Z,5.40
2022-11-08T07:10:17.673Z,5.60
2022-11-08T07:12:57.390Z,5.50
2022-11-08T07:15:32.735Z,5.50
2022-11-08T07:18:15.721Z,5.60
2022-11-08T07:20:48.626Z,5.60
2022-11-08T07:23:20.308Z,5.60
2022-11-08T07:25:56.007Z,5.70
2022-11-08T07:28:28.482Z,5.60
2022-11-08T07:31:08.653Z,5.80
2022-11-08T07:33:43.884Z,5.80
2022-11-08T07:36:22.460Z,5.80
2022-11-08T07:39:10.662Z,5.90
2022-11-08T07:41:49.053Z,5.90
2022-11-08T07:44:27.178Z,5.90
2022-11-08T07:47:15.145Z,6.00
2022-11-08T07:49:41.795Z,6.00
2022-11-08T07:52:21.498Z,6.10
2022-11-08T07:54:56.954Z,6.10
2022-11-08T07:57:35.624Z,6.00
2022-11-08T08:00:11.676Z,6.00
2022-11-08T08:02:51.788Z,6.00
2022-11-08T08:05:32.144Z,6.10
2022-11-08T08:08:07.953Z,6.00
2022-11-08T08:10:44.568Z,5.90
2022-11-08T08:13:22.936Z,6.00
2022-11-08T08:15:55.621Z,6.00
2022-11-08T08:18:34.437Z,6.00
2022-11-08T08:21:13.411Z,6.10
2022-11-08T08:23:55.089Z,6.10
2022-11-08T08:26:30.446Z,6.20
2022-11-08T08:29:14.922Z,6.10
2022-11-08T08:31:54.646Z,6.10
2022-11-08T08:34:34.754Z,6.20
2022-11-08T08:37:19.890Z,6.20
2022-11-08T08:40:01.330Z,6.20
2022-11-08T08:42:35.585Z,6.20
2022-11-08T08:45:15.118Z,6.30
2022-11-08T08:47:56.463Z,6.30
2022-11-08T08:50:38.706Z,6.30
2022-11-08T08:53:17.621Z,6.20
2022-11-08T08:55:53.136Z,6.20
2022-11-08T08:58:28.722Z,6.30
2022-11-08T09:04:12.802Z,6.40
2022-11-08T09:06:52.908Z,6.40
2022-11-08T09:09:29.307Z,6.40
2022-11-08T09:12:11.943Z,6.60
2022-11-08T09:14:52.584Z,6.50
2022-11-08T09:17:31.062Z,6.50
2022-11-08T09:20:03.572Z,6.50
2022-11-08T09:22:45.147Z,6.60
2022-11-08T09:25:27.474Z,6.60
2022-11-08T09:28:08.960Z,6.60
2022-11-08T09:30:47.925Z,6.80
2022-11-08T09:33:29.507Z,6.90
2022-11-08T09:36:09.263Z,6.70
2022-11-08T09:38:50.526Z,6.80
2022-11-08T09:41:29.666Z,6.70
2022-11-08T09:44:10.222Z,6.80
2022-11-08T09:46:46.780Z,6.80
2022-11-08T09:49:30.763Z,6.80
2022-11-08T09:52:13.091Z,6.80
2022-11-08T09:54:56.165Z,6.80
2022-11-08T09:57:44.116Z,6.90
2022-11-08T10:00:25.382Z,7.00
2022-11-08T10:03:01.440Z,7.10
2022-11-08T10:05:40.586Z,6.90
2022-11-08T10:08:16.342Z,7.00
2022-11-08T10:10:55.305Z,7.00
2022-11-08T10:13:48.657Z,7.00
2022-11-08T10:16:45.755Z,7.00
2022-11-08T10:19:38.736Z,7.00
2022-11-08T10:22:15.389Z,6.90
2022-11-08T10:25:00.137Z,6.80
2022-11-08T10:27:40.835Z,6.80
2022-11-08T10:30:33.705Z,6.80
2022-11-08T10:33:17.788Z,6.80
2022-11-08T10:36:17.391Z,6.80
2022-11-08T10:38:55.564Z,7.00
2022-11-08T10:42:00.415Z,7.10
2022-11-08T10:44:36.611Z,7.00
2022-11-08T10:47:18.436Z,7.00
2022-11-08T10:50:03.343Z,7.00
2022-11-08T10:52:42.714Z,7.10
2022-11-08T10:55:41.102Z,7.10
2022-11-08T10:58:36.384Z,7.00
2022-11-08T11:01:13.127Z,7.10
2022-11-08T11:03:49.543Z,7.00
2022-11-08T11:06:38.603Z,7.00
2022-11-08T11:09:34.659Z,7.00
2022-11-08T11:12:12.754Z,6.90
2022-11-08T11:14:48.353Z,6.90
2022-11-08T11:20:11.232Z,7.00
2022-11-08T11:22:50.139Z,7.10
2022-11-08T11:25:31.447Z,7.10
2022-11-08T11:28:06.789Z,7.20
2022-11-08T11:30:53.152Z,7.10
2022-11-08T11:33:34.093Z,7.10
2022-11-08T11:36:27.480Z,7.20
2022-11-08T11:39:00.771Z,7.20
2022-11-08T11:41:49.351Z,7.40
2022-11-08T11:44:47.549Z,7.30
2022-11-08T11:47:32.997Z,7.40
2022-11-08T11:50:26.676Z,7.40
2022-11-08T11:53:11.818Z,7.50
2022-11-08T11:55:47.796Z,7.50
2022-11-08T11:58:31.124Z,7.50
2022-11-08T12:01:25.612Z,7.50
2022-11-08T12:04:06.579Z,7.70
2022-11-08T12:06:50.016Z,7.70
2022-11-08T12:09:36.517Z,7.70
2022-11-08T12:12:18.527Z,7.70
2022-11-08T12:15:02.690Z,7.80
2022-11-08T12:17:33.581Z,8.00
2022-11-08T12:20:29.321Z,8.00
2022-11-08T12:23:14.735Z,8.00
2022-11-08T12:26:09.027Z,8.10
2022-11-08T12:28:52.825Z,8.10
2022-11-08T12:31:36.528Z,8.20
2022-11-08T12:34:32.959Z,8.30
2022-11-08T12:37:16.011Z,8.30
2022-11-08T12:39:52.701Z,8.30
2022-11-08T12:42:43.996Z,8.30
2022-11-08T12:45:27.854Z,8.30
2022-11-08T12:48:06.648Z,8.20
2022-11-08T12:50:40.798Z,8.20
2022-11-08T12:53:38.666Z,8.20
2022-11-08T12:56:21.480Z,8.30
2022-11-08T12:59:03.341Z,8.20
2022-11-08T13:01:35.843Z,8.30
2022-11-08T13:04:32.502Z,8.30
2022-11-08T13:07:22.960Z,8.40
2022-11-08T13:10:03.883Z,8.40
2022-11-08T13:13:05.962Z,8.40
2022-11-08T13:15:47.382Z,8.40
2022-11-08T13:18:23.700Z,8.50
2022-11-08T13:20:59.423Z,8.40
2022-11-08T13:23:44.575Z,8.40
2022-11-08T13:26:36.039Z,8.40
2022-11-08T13:29:44.420Z,8.40
2022-11-08T13:32:31.180Z,8.50
2022-11-08T13:35:07.383Z,8.40
2022-11-08T13:37:52.023Z,8.40
2022-11-08T13:40:35.209Z,8.40
2022-11-08T13:43:29.312Z,8.40
2022-11-08T13:46:09.791Z,8.40
2022-11-08T13:49:05.440Z,8.40
2022-11-08T13:51:46.034Z,8.40
2022-11-08T13:54:34.292Z,8.50
2022-11-08T13:57:09.942Z,8.50
2022-11-08T13:59:48.268Z,8.70
2022-11-08T14:02:34.336Z,8.60
2022-11-08T14:05:19.013Z,8.70
2022-11-08T14:07:57.795Z,8.70
2022-11-08T14:10:36.504Z,8.80
2022-11-08T14:13:20.081Z,8.80
2022-11-08T14:16:14.338Z,8.80
2022-11-08T14:18:50.002Z,8.90
2022-11-08T14:21:25.462Z,8.90
2022-11-08T14:24:04.629Z,8.90
2022-11-08T14:26:40.097Z,8.90
2022-11-08T14:29:14.763Z,8.90
2022-11-08T14:31:52.640Z,8.80
2022-11-08T14:34:44.498Z,8.80
2022-11-08T14:37:28.708Z,8.70
2022-11-08T14:40:08.760Z,8.70
2022-11-08T14:42:47.647Z,8.70
2022-11-08T14:45:33.387Z,8.70
2022-11-08T14:48:09.797Z,9.80
2022-11-08T14:51:07.190Z,8.70
2022-11-08T14:53:59.363Z,8.80
2022-11-08T14:56:50.192Z,8.70
2022-11-08T14:59:30.913Z,8.70
2022-11-08T15:02:12.815Z,8.60
2022-11-08T15:04:48.632Z,8.60
2022-11-08T15:07:30.565Z,8.50
2022-11-08T15:10:16.721Z,8.50
2022-11-08T15:13:02.505Z,8.50
2022-11-08T15:15:37.850Z,8.50
2022-11-08T15:18:22.190Z,8.50
2022-11-08T15:21:21.550Z,8.50
2022-11-08T15:24:06.106Z,8.40
2022-11-08T15:26:38.833Z,8.30
2022-11-08T15:29:29.027Z,8.20
2022-11-08T15:32:09.593Z,8.30
2022-11-08T15:34:48.203Z,8.30
2022-11-08T15:37:31.584Z,8.30
2022-11-08T15:40:11.727Z,8.30
2022-11-08T15:42:51.908Z,8.20
2022-11-08T15:45:18.614Z,8.30
2022-11-08T15:47:46.213Z,8.20
2022-11-08T15:50:12.985Z,8.20
2022-11-08T15:52:39.654Z,8.20
2022-11-08T15:55:06.633Z,8.20
2022-11-08T15:57:40.480Z,8.20
2022-11-08T16:00:07.542Z,8.10
2022-11-08T16:02:40.724Z,8.10
2022-11-08T16:05:34.763Z,8.10
2022-11-08T16:08:19.783Z,8.00
2022-11-08T16:10:56.891Z,8.00
2022-11-08T16:13:42.349Z,8.00
2022-11-08T16:16:24.717Z,8.00
2022-11-08T16:19:06.306Z,8.00
2022-11-08T16:21:42.704Z,8.20
2022-11-08T16:24:21.171Z,8.10
2022-11-08T16:27:03.849Z,8.10
2022-11-08T16:29:45.462Z,8.10
2022-11-08T16:32:21.851Z,8.10
2022-11-08T16:35:00.268Z,8.00
2022-11-08T16:37:39.456Z,8.10
2022-11-08T16:40:24.872Z,8.10
2022-11-08T16:43:00.968Z,8.00
2022-11-08T16:46:04.463Z,8.00
2022-11-08T16:48:49.255Z,8.00
2022-11-08T16:51:30.646Z,8.00
2022-11-08T16:54:17.839Z,8.00
2022-11-08T16:57:13.760Z,8.00
2022-11-08T16:59:50.682Z,8.00
2022-11-08T17:02:35.712Z,8.10
2022-11-08T17:05:08.228Z,8.00
2022-11-08T17:07:46.372Z,8.00
2022-11-08T17:10:19.426Z,8.10
2022-11-08T17:12:57.701Z,8.00
2022-11-08T17:15:36.501Z,8.00
2022-11-08T17:18:15.245Z,8.10
2022-11-08T17:20:54.893Z,8.10
2022-11-08T17:23:35.304Z,8.20
2022-11-08T17:26:17.086Z,8.20
2022-11-08T17:29:01.117Z,8.10
2022-11-08T17:31:41.146Z,8.10
2022-11-08T17:34:16.487Z,8.20
2022-11-08T17:36:43.170Z,8.20
2022-11-08T17:39:21.471Z,8.20
2022-11-08T17:41:57.848Z,8.20
2022-11-08T17:44:39.484Z,8.20
2022-11-08T17:47:14.860Z,8.20
2022-11-08T17:49:54.718Z,8.30
2022-11-08T17:52:33.546Z,8.20
2022-11-08T17:55:15.150Z,8.10
2022-11-08T17:57:53.488Z,8.20
2022-11-08T18:00:31.571Z,8.20
2022-11-08T18:03:01.497Z,8.30
2022-11-08T18:05:34.087Z,8.20
2022-11-08T18:08:32.961Z,8.20
2022-11-08T18:11:08.073Z,8.20
2022-11-08T18:13:49.511Z,8.20
2022-11-08T18:16:30.108Z,8.10
2022-11-08T18:19:02.548Z,8.20
2022-11-08T18:21:42.159Z,8.20
2022-11-08T18:24:37.067Z,8.30
2022-11-08T18:27:14.417Z,8.10
2022-11-08T18:29:52.931Z,8.30
2022-11-08T18:32:31.513Z,8.20
2022-11-08T18:35:03.774Z,8.20
2022-11-08T18:37:39.695Z,8.20
2022-11-08T18:40:15.887Z,8.20
2022-11-08T18:42:54.747Z,8.20
2022-11-08T18:45:30.997Z,8.10
2022-11-08T18:48:12.432Z,8.10
2022-11-08T18:50:47.884Z,8.10
2022-11-08T18:53:24.235Z,8.10
2022-11-08T18:55:59.874Z,8.00
2022-11-08T18:58:36.111Z,8.10
2022-11-08T19:01:12.141Z,8.20
2022-11-08T19:03:44.486Z,8.20
2022-11-08T19:06:22.332Z,8.20
2022-11-08T19:09:00.555Z,8.20
2022-11-08T19:11:36.877Z,8.20
2022-11-08T19:14:18.330Z,8.20
2022-11-08T19:16:56.943Z,8.20
2022-11-08T19:19:38.013Z,8.20
2022-11-08T19:22:13.806Z,8.20
2022-11-08T19:24:54.861Z,8.30
2022-11-08T19:27:31.879Z,8.30
2022-11-08T19:30:15.239Z,8.30
2022-11-08T19:32:53.352Z,8.30
2022-11-08T19:35:35.233Z,8.30
2022-11-08T19:38:13.939Z,8.20
2022-11-08T19:40:51.914Z,8.20
2022-11-08T19:43:28.001Z,8.20
2022-11-08T19:46:09.249Z,8.20
2022-11-08T19:48:51.919Z,8.20
2022-11-08T19:51:23.931Z,8.20
2022-11-08T19:54:00.943Z,8.30
2022-11-08T19:59:34.992Z,8.20
2022-11-08T20:02:10.269Z,8.30
2022-11-08T20:04:49.976Z,8.30
2022-11-08T20:07:28.272Z,8.30
2022-11-08T20:10:09.267Z,8.30
2022-11-08T20:12:47.629Z,8.30
2022-11-08T20:15:30.278Z,8.30
2022-11-08T20:18:07.800Z,8.30
2022-11-08T20:20:43.740Z,8.30
2022-11-08T20:23:20.051Z,8.30
2022-11-08T20:25:58.465Z,8.30
2022-11-08T20:28:41.802Z,8.30
2022-11-08T20:31:25.337Z,8.30
2022-11-08T20:34:03.797Z,8.30
2022-11-08T20:36:41.082Z,8.40
2022-11-08T20:39:22.221Z,8.40
2022-11-08T20:41:58.068Z,8.40
2022-11-08T20:44:36.798Z,8.40
2022-11-08T20:47:19.133Z,8.30
2022-11-08T20:49:45.767Z,8.40
2022-11-08T20:52:26.718Z,8.40
2022-11-08T20:55:09.349Z,8.40
2022-11-08T20:57:48.666Z,8.40
2022-11-08T21:00:51.884Z,8.40
2022-11-08T21:03:22.953Z,8.30
2022-11-08T21:05:58.863Z,8.30
2022-11-08T21:08:59.470Z,8.30
2022-11-08T21:11:35.890Z,8.30
2022-11-08T21:14:13.919Z,8.30
2022-11-08T21:17:19.622Z,8.30
2022-11-08T21:19:41.945Z,8.20
2022-11-08T21:22:23.957Z,8.20
2022-11-08T21:24:59.709Z,8.30
2022-11-08T21:27:40.307Z,8.20
2022-11-08T21:30:16.023Z,8.30
2022-11-08T21:32:54.868Z,8.30
2022-11-08T21:35:33.508Z,8.30
2022-11-08T21:38:12.231Z,8.30
2022-11-08T21:40:48.078Z,8.30
2022-11-08T21:43:23.369Z,8.30
2022-11-08T21:45:58.954Z,8.20
2022-11-08T21:48:39.384Z,8.30
2022-11-08T21:51:11.963Z,8.30
2022-11-08T21:53:53.951Z,8.30
2022-11-08T21:56:29.001Z,8.30
2022-11-08T21:59:03.911Z,8.20
2022-11-08T22:01:42.728Z,8.20
2022-11-08T22:04:18.447Z,8.20
2022-11-08T22:06:56.368Z,8.20
2022-11-08T22:09:47.217Z,8.30
2022-11-08T22:12:24.352Z,8.20
2022-11-08T22:14:56.167Z,8.20
2022-11-08T22:17:28.871Z,8.20
2022-11-08T22:20:08.777Z,8.20
2022-11-08T22:22:41.813Z,8.20
2022-11-08T22:25:19.020Z,8.20
2022-11-08T22:27:59.998Z,8.20
2022-11-08T22:30:38.878Z,8.20
2022-11-08T22:33:14.957Z,8.20
2022-11-08T22:35:53.668Z,8.20
2022-11-08T22:38:33.145Z,8.20
2022-11-08T22:41:16.149Z,8.20
2022-11-08T22:43:57.012Z,8.20
2022-11-08T22:46:39.837Z,8.10
2022-11-08T22:49:18.853Z,8.10
2022-11-08T22:51:57.676Z,8.10
2022-11-08T22:54:36.028Z,8.10
2022-11-08T22:57:17.487Z,8.10
2022-11-08T23:00:01.803Z,8.10
2022-11-08T23:02:43.721Z,8.20
2022-11-08T23:05:19.919Z,8.20
2022-11-08T23:07:58.498Z,8.10
2022-11-08T23:10:51.414Z,8.10
2022-11-08T23:13:42.966Z,8.20
2022-11-08T23:16:37.309Z,8.10
2022-11-08T23:19:29.213Z,8.20
2022-11-08T23:22:18.780Z,8.10
2022-11-08T23:24:54.025Z,8.20
2022-11-08T23:27:45.345Z,8.10
2022-11-08T23:30:39.640Z,8.20
2022-11-08T23:33:17.738Z,8.20
2022-11-08T23:36:21.597Z,8.20
2022-11-08T23:39:00.844Z,8.20
2022-11-08T23:41:49.036Z,8.20
2022-11-08T23:44:32.074Z,8.20
2022-11-08T23:47:10.627Z,8.20
2022-11-08T23:49:49.484Z,8.20
2022-11-08T23:52:27.680Z,8.20
2022-11-08T23:55:03.999Z,8.20
2022-11-08T23:57:45.492Z,8.20
